createdAt,value
2022-10-14T00:00:44.026Z,55.27
2022-10-14T00:03:10.853Z,56.71
2022-10-14T00:05:40.779Z,59.20
2022-10-14T00:08:09.121Z,55.40
2022-10-14T00:10:39.966Z,55.03
2022-10-14T00:13:07.177Z,56.21
2022-10-14T00:15:38.963Z,54.62
2022-10-14T00:18:06.838Z,53.99
2022-10-14T00:20:34.005Z,54.39
2022-10-14T00:23:00.829Z,55.17
2022-10-14T00:25:28.380Z,52.63
2022-10-14T00:27:55.618Z,55.76
2022-10-14T00:30:22.872Z,54.37
2022-10-14T00:32:49.732Z,54.24
2022-10-14T00:35:16.808Z,54.24
2022-10-14T00:37:43.657Z,56.18
2022-10-14T00:40:11.045Z,55.86
2022-10-14T00:42:37.901Z,56.59
2022-10-14T00:45:09.970Z,55.64
2022-10-14T00:47:36.902Z,58.64
2022-10-14T00:50:04.107Z,56.84
2022-10-14T00:52:31.216Z,56.08
2022-10-14T00:55:04.431Z,55.52
2022-10-14T00:57:31.985Z,57.00
2022-10-14T01:00:05.032Z,54.18
2022-10-14T01:02:31.914Z,55.92
2022-10-14T01:05:00.142Z,55.08
2022-10-14T01:07:35.940Z,56.00
2022-10-14T01:10:09.822Z,56.74
2022-10-14T01:13:02.193Z,53.96
2022-10-14T01:15:44.233Z,54.66
2022-10-14T01:18:20.477Z,53.57
2022-10-14T01:20:56.446Z,54.30
2022-10-14T01:23:45.091Z,54.67
2022-10-14T01:26:20.712Z,56.46
2022-10-14T01:28:56.238Z,56.21
2022-10-14T01:31:26.017Z,55.37
2022-10-14T01:33:56.912Z,55.07
2022-10-14T01:36:27.461Z,55.38
2022-10-14T01:38:58.932Z,55.64
2022-10-14T01:41:29.364Z,53.81
2022-10-14T01:43:58.750Z,54.06
2022-10-14T01:46:27.482Z,54.49
2022-10-14T01:49:03.355Z,55.89
2022-10-14T01:51:41.586Z,57.80
2022-10-14T01:54:15.763Z,57.83
2022-10-14T01:56:45.746Z,57.62
2022-10-14T01:59:13.658Z,54.99
2022-10-14T02:01:40.681Z,53.96
2022-10-14T02:04:21.157Z,52.82
2022-10-14T02:07:12.302Z,53.52
2022-10-14T02:09:54.739Z,52.65
2022-10-14T02:12:46.078Z,52.95
2022-10-14T02:15:21.344Z,53.02
2022-10-14T02:18:09.665Z,54.74
2022-10-14T02:21:03.898Z,55.09
2022-10-14T02:23:33.605Z,57.01
2022-10-14T02:26:00.623Z,59.22
2022-10-14T02:28:28.239Z,59.89
2022-10-14T02:31:00.991Z,56.47
2022-10-14T02:33:33.416Z,59.45
2022-10-14T02:36:02.127Z,59.63
2022-10-14T02:38:30.554Z,59.01
2022-10-14T02:40:57.675Z,58.73
2022-10-14T02:43:24.581Z,58.45
2022-10-14T02:45:57.569Z,57.81
2022-10-14T02:48:24.664Z,56.42
2022-10-14T02:50:51.543Z,55.57
2022-10-14T02:53:18.405Z,54.88
2022-10-14T02:55:45.257Z,55.06
2022-10-14T02:58:12.130Z,53.80
2022-10-14T03:00:38.950Z,52.24
2022-10-14T03:03:05.833Z,52.13
2022-10-14T03:05:32.656Z,52.82
2022-10-14T03:07:59.468Z,54.49
2022-10-14T03:10:26.354Z,54.94
2022-10-14T03:12:53.345Z,52.64
2022-10-14T03:15:21.088Z,55.17
2022-10-14T03:17:47.944Z,55.92
2022-10-14T03:20:14.798Z,55.50
2022-10-14T03:22:42.171Z,55.57
2022-10-14T03:25:09.514Z,54.09
2022-10-14T03:27:36.372Z,54.33
2022-10-14T03:30:03.781Z,53.90
2022-10-14T03:32:30.653Z,53.64
2022-10-14T03:34:57.917Z,53.14
2022-10-14T03:37:24.801Z,52.30
2022-10-14T03:39:51.635Z,52.71
2022-10-14T03:42:18.675Z,52.67
2022-10-14T03:44:46.427Z,54.22
2022-10-14T03:47:13.285Z,53.82
2022-10-14T03:49:40.109Z,52.75
2022-10-14T03:52:06.940Z,52.09
2022-10-14T03:54:34.093Z,53.43
2022-10-14T03:57:00.941Z,54.84
2022-10-14T03:59:27.779Z,52.71
2022-10-14T04:01:54.629Z,55.92
2022-10-14T04:04:21.554Z,56.56
2022-10-14T04:06:48.381Z,56.55
2022-10-14T04:09:15.326Z,54.56
2022-10-14T04:11:42.308Z,55.34
2022-10-14T04:14:09.525Z,56.48
2022-10-14T04:16:36.432Z,55.83
2022-10-14T04:19:03.605Z,54.27
2022-10-14T04:21:30.469Z,55.68
2022-10-14T04:23:57.306Z,55.89
2022-10-14T04:26:24.155Z,55.82
2022-10-14T04:28:51.310Z,55.63
2022-10-14T04:31:18.237Z,52.93
2022-10-14T04:33:45.075Z,52.17
2022-10-14T04:36:11.925Z,53.53
2022-10-14T04:38:38.753Z,51.99
2022-10-14T04:41:05.680Z,50.90
2022-10-14T04:43:32.552Z,52.59
2022-10-14T04:45:59.387Z,53.14
2022-10-14T04:48:26.248Z,51.90
2022-10-14T04:50:54.136Z,53.45
2022-10-14T04:53:22.252Z,54.97
2022-10-14T04:55:49.893Z,55.52
2022-10-14T04:58:17.196Z,53.11
2022-10-14T05:00:44.123Z,53.20
2022-10-14T05:03:11.062Z,52.60
2022-10-14T05:05:37.945Z,52.29
2022-10-14T05:08:05.016Z,54.07
2022-10-14T05:10:31.994Z,54.22
2022-10-14T05:12:58.820Z,53.29
2022-10-14T05:15:25.682Z,55.61
2022-10-14T05:17:52.519Z,58.28
2022-10-14T05:20:19.458Z,61.05
2022-10-14T05:22:46.278Z,61.93
2022-10-14T05:25:13.123Z,61.65
2022-10-14T05:27:40.481Z,61.07
2022-10-14T05:30:07.900Z,60.47
2022-10-14T05:32:34.707Z,59.94
2022-10-14T05:35:01.600Z,58.75
2022-10-14T05:37:28.471Z,58.09
2022-10-14T05:39:55.442Z,54.40
2022-10-14T05:42:22.542Z,54.39
2022-10-14T05:44:49.810Z,54.24
2022-10-14T05:47:16.871Z,54.43
2022-10-14T05:49:43.695Z,58.21
2022-10-14T05:52:10.516Z,58.23
2022-10-14T05:54:37.404Z,57.76
2022-10-14T05:57:04.380Z,56.33
2022-10-14T05:59:33.437Z,54.50
2022-10-14T06:02:00.432Z,52.58
2022-10-14T06:04:27.555Z,50.26
2022-10-14T06:06:54.423Z,46.92
2022-10-14T06:09:21.279Z,47.16
2022-10-14T06:11:48.460Z,46.67
2022-10-14T06:14:15.339Z,46.60
2022-10-14T06:16:42.213Z,45.40
2022-10-14T06:19:09.073Z,44.55
2022-10-14T06:21:35.864Z,44.25
2022-10-14T06:24:02.703Z,43.87
2022-10-14T06:26:29.531Z,43.00
2022-10-14T06:28:56.481Z,42.64
2022-10-14T06:31:23.389Z,42.33
2022-10-14T06:33:50.384Z,41.89
2022-10-14T06:36:17.289Z,42.02
2022-10-14T06:38:44.153Z,41.33
2022-10-14T06:41:11.222Z,40.99
2022-10-14T06:43:38.242Z,40.49
2022-10-14T06:46:05.724Z,40.03
2022-10-14T06:48:32.596Z,38.86
2022-10-14T06:51:00.372Z,37.44
2022-10-14T06:53:27.982Z,37.67
2022-10-14T06:56:01.945Z,36.35
2022-10-14T06:58:29.221Z,37.30
2022-10-14T07:03:27.977Z,38.39
2022-10-14T07:05:54.963Z,42.51
2022-10-14T07:08:21.802Z,39.43
2022-10-14T07:10:48.787Z,42.28
2022-10-14T07:13:15.613Z,45.97
2022-10-14T07:15:42.561Z,45.89
2022-10-14T07:18:09.399Z,47.69
2022-10-14T07:20:36.310Z,47.29
2022-10-14T07:23:03.206Z,50.36
2022-10-14T07:25:30.046Z,50.99
2022-10-14T07:27:56.944Z,50.26
2022-10-14T07:30:23.891Z,49.82
2022-10-14T07:32:50.751Z,54.32
2022-10-14T07:35:19.149Z,55.92
2022-10-14T07:37:46.647Z,54.66
2022-10-14T07:40:14.161Z,55.43
2022-10-14T07:42:41.067Z,56.69
2022-10-14T07:45:08.497Z,57.48
2022-10-14T07:47:35.401Z,56.21
2022-10-14T07:50:02.378Z,53.62
2022-10-14T07:52:29.205Z,55.46
2022-10-14T07:54:56.071Z,53.69
2022-10-14T07:57:24.097Z,52.37
2022-10-14T07:59:52.774Z,53.82
2022-10-14T08:02:19.778Z,54.58
2022-10-14T08:04:47.018Z,53.47
2022-10-14T08:07:16.638Z,53.92
2022-10-14T08:09:43.705Z,52.27
2022-10-14T08:12:10.699Z,51.62
2022-10-14T08:14:37.920Z,51.40
2022-10-14T08:17:04.959Z,50.83
2022-10-14T08:19:32.095Z,54.66
2022-10-14T08:21:59.195Z,48.95
2022-10-14T08:24:26.098Z,49.70
2022-10-14T08:26:55.166Z,51.41
2022-10-14T08:29:25.753Z,47.96
2022-10-14T08:31:54.335Z,49.95
2022-10-14T08:34:21.966Z,50.05
2022-10-14T08:36:49.143Z,52.91
2022-10-14T08:39:19.444Z,50.93
2022-10-14T08:42:00.678Z,48.43
2022-10-14T08:44:34.564Z,47.09
2022-10-14T08:47:03.134Z,48.38
2022-10-14T08:49:35.879Z,44.98
2022-10-14T08:52:13.013Z,45.26
2022-10-14T08:54:42.149Z,47.31
2022-10-14T08:57:15.056Z,48.66
2022-10-14T08:59:42.634Z,47.29
2022-10-14T09:02:25.729Z,47.66
2022-10-14T09:04:52.570Z,46.14
2022-10-14T09:07:20.267Z,44.60
2022-10-14T09:10:08.289Z,47.96
2022-10-14T09:12:36.053Z,44.98
2022-10-14T09:15:19.818Z,45.71
2022-10-14T09:17:52.903Z,43.62
2022-10-14T09:20:22.455Z,43.60
2022-10-14T09:23:19.537Z,45.40
2022-10-14T09:25:59.031Z,42.22
2022-10-14T09:28:40.761Z,45.43
2022-10-14T09:31:11.568Z,43.79
2022-10-14T09:33:42.628Z,43.87
2022-10-14T09:36:17.673Z,42.16
2022-10-14T09:38:47.485Z,44.67
2022-10-14T09:41:16.821Z,44.91
2022-10-14T09:44:23.948Z,45.54
2022-10-14T09:46:54.206Z,40.86
2022-10-14T09:49:29.954Z,41.44
2022-10-14T09:51:57.790Z,38.68
2022-10-14T09:54:26.684Z,40.42
2022-10-14T09:57:05.571Z,40.23
2022-10-14T09:59:32.858Z,42.95
2022-10-14T10:02:02.144Z,39.04
2022-10-14T10:04:31.952Z,37.41
2022-10-14T10:07:00.713Z,40.00
2022-10-14T10:09:27.933Z,39.44
2022-10-14T10:11:55.410Z,38.99
2022-10-14T10:14:30.849Z,42.53
2022-10-14T10:17:10.102Z,42.14
2022-10-14T10:19:44.867Z,43.94
2022-10-14T10:22:26.733Z,39.47
2022-10-14T10:25:03.653Z,41.49
2022-10-14T10:27:36.733Z,40.77
2022-10-14T10:30:21.708Z,38.66
2022-10-14T10:32:57.198Z,38.85
2022-10-14T10:36:04.327Z,39.82
2022-10-14T10:39:19.075Z,40.82
2022-10-14T10:42:08.243Z,38.80
2022-10-14T10:44:49.636Z,39.28
2022-10-14T10:47:47.792Z,37.29
2022-10-14T10:50:42.605Z,37.93
2022-10-14T10:53:33.902Z,37.91
2022-10-14T10:56:07.364Z,40.67
2022-10-14T10:58:57.802Z,38.57
2022-10-14T11:04:33.688Z,40.23
2022-10-14T11:07:47.862Z,37.85
2022-10-14T11:18:00.967Z,36.21
2022-10-14T11:24:46.282Z,37.36
2022-10-14T11:30:36.807Z,38.07
2022-10-14T11:33:27.920Z,37.65
2022-10-14T11:36:03.685Z,37.99
2022-10-14T11:41:18.987Z,38.29
2022-10-14T11:44:12.613Z,37.00
2022-10-14T11:46:43.174Z,38.41
2022-10-14T11:49:22.729Z,35.22
2022-10-14T11:52:00.058Z,37.84
2022-10-14T11:54:35.652Z,35.51
2022-10-14T11:57:20.443Z,39.24
2022-10-14T11:59:56.043Z,42.18
2022-10-14T12:02:45.077Z,42.21
2022-10-14T12:05:35.237Z,42.94
2022-10-14T12:08:17.344Z,45.04
2022-10-14T12:11:19.534Z,42.10
2022-10-14T12:13:57.222Z,42.98
2022-10-14T12:16:29.299Z,43.27
2022-10-14T12:19:02.174Z,41.61
2022-10-14T12:21:41.042Z,41.73
2022-10-14T12:24:14.123Z,41.98
2022-10-14T12:26:57.187Z,43.96
2022-10-14T12:29:43.338Z,44.01
2022-10-14T12:32:26.410Z,42.37
2022-10-14T12:35:01.549Z,42.23
2022-10-14T12:37:35.480Z,41.12
2022-10-14T12:40:02.610Z,41.70
2022-10-14T12:42:35.452Z,41.65
2022-10-14T12:45:04.769Z,42.53
2022-10-14T12:47:38.635Z,42.83
2022-10-14T12:50:27.359Z,39.96
2022-10-14T12:53:06.782Z,41.82
2022-10-14T12:55:48.006Z,41.58
2022-10-14T12:58:41.480Z,41.48
2022-10-14T13:01:19.995Z,45.21
2022-10-14T13:03:54.384Z,42.84
2022-10-14T13:06:39.461Z,41.47
2022-10-14T13:09:12.764Z,42.52
2022-10-14T13:11:59.498Z,43.89
2022-10-14T13:14:30.029Z,39.97
2022-10-14T13:17:00.885Z,41.30
2022-10-14T13:19:33.672Z,40.82
2022-10-14T13:22:02.321Z,40.47
2022-10-14T13:24:32.116Z,42.40
2022-10-14T13:27:30.924Z,44.08
2022-10-14T13:30:08.163Z,41.80
2022-10-14T13:32:50.300Z,41.48
2022-10-14T13:35:31.340Z,43.05
2022-10-14T13:38:05.395Z,40.55
2022-10-14T13:40:35.515Z,39.91
2022-10-14T13:43:28.785Z,40.41
2022-10-14T13:46:00.492Z,40.51
2022-10-14T13:48:51.022Z,41.06
2022-10-14T13:51:45.023Z,42.52
2022-10-14T13:54:16.158Z,40.78
2022-10-14T13:56:43.431Z,41.54
2022-10-14T13:59:44.400Z,38.49
2022-10-14T14:02:25.839Z,42.02
2022-10-14T14:04:55.809Z,41.16
2022-10-14T14:07:47.805Z,39.27
2022-10-14T14:10:12.797Z,42.46
2022-10-14T14:12:42.864Z,40.35
2022-10-14T14:15:19.274Z,41.55
2022-10-14T14:17:46.079Z,40.58
2022-10-14T14:20:12.938Z,42.41
2022-10-14T14:22:46.317Z,42.65
2022-10-14T14:25:46.763Z,44.23
2022-10-14T14:28:13.822Z,44.08
2022-10-14T14:30:40.659Z,44.76
2022-10-14T14:33:11.461Z,42.34
2022-10-14T14:35:38.351Z,41.32
2022-10-14T14:38:05.185Z,43.41
2022-10-14T14:40:32.242Z,45.33
2022-10-14T14:43:01.338Z,44.53
2022-10-14T14:45:30.981Z,41.77
2022-10-14T14:47:59.302Z,41.31
2022-10-14T14:50:36.399Z,39.95
2022-10-14T14:53:06.903Z,40.02
2022-10-14T14:55:37.669Z,39.92
2022-10-14T14:58:06.889Z,40.82
2022-10-14T15:00:33.762Z,39.22
2022-10-14T15:03:02.339Z,40.95
2022-10-14T15:05:30.121Z,39.11
2022-10-14T15:07:57.230Z,38.55
2022-10-14T15:10:29.867Z,38.40
2022-10-14T15:12:58.540Z,40.04
2022-10-14T15:15:32.408Z,39.86
2022-10-14T15:18:20.562Z,39.64
2022-10-14T15:20:49.547Z,39.46
2022-10-14T15:23:50.598Z,39.66
2022-10-14T15:26:22.926Z,40.10
2022-10-14T15:29:14.865Z,40.25
2022-10-14T15:31:47.669Z,39.71
2022-10-14T15:34:22.635Z,40.20
2022-10-14T15:36:51.202Z,40.55
2022-10-14T15:39:18.602Z,39.39
2022-10-14T15:41:48.068Z,38.50
2022-10-14T15:44:15.252Z,40.04
2022-10-14T15:47:02.304Z,40.71
2022-10-14T15:49:32.033Z,39.30
2022-10-14T15:51:59.013Z,41.05
2022-10-14T15:54:27.759Z,41.29
2022-10-14T15:59:27.796Z,42.00
2022-10-14T16:01:54.870Z,41.36
2022-10-14T16:04:24.979Z,40.93
2022-10-14T16:06:55.386Z,40.70
2022-10-14T16:09:27.827Z,41.66
2022-10-14T16:11:57.650Z,43.63
2022-10-14T16:14:25.412Z,46.37
2022-10-14T16:16:52.263Z,49.88
2022-10-14T16:19:19.813Z,51.75
2022-10-14T16:21:48.029Z,47.36
2022-10-14T16:24:20.443Z,45.66
2022-10-14T16:26:51.446Z,44.88
2022-10-14T16:29:19.732Z,43.70
2022-10-14T16:31:50.313Z,45.26
2022-10-14T16:34:21.262Z,45.07
2022-10-14T16:36:51.406Z,46.70
2022-10-14T16:39:19.544Z,47.18
2022-10-14T16:41:46.539Z,46.59
2022-10-14T16:44:33.655Z,47.45
2022-10-14T16:47:20.330Z,47.43
2022-10-14T16:49:49.367Z,48.69
2022-10-14T16:52:16.570Z,48.47
2022-10-14T16:54:43.445Z,47.67
2022-10-14T16:57:10.821Z,48.41
2022-10-14T16:59:37.737Z,48.78
2022-10-14T17:02:05.257Z,49.79
2022-10-14T17:04:32.134Z,50.52
2022-10-14T17:06:59.046Z,49.47
2022-10-14T17:11:57.542Z,50.81
2022-10-14T17:14:24.425Z,51.92
2022-10-14T17:16:52.661Z,51.23
2022-10-14T17:19:19.984Z,51.18
2022-10-14T17:21:47.457Z,51.39
2022-10-14T17:24:15.222Z,53.25
2022-10-14T17:26:42.044Z,53.63
2022-10-14T17:29:08.917Z,54.22
2022-10-14T17:31:38.005Z,54.02
2022-10-14T17:34:05.195Z,54.02
2022-10-14T17:36:32.085Z,53.87
2022-10-14T17:38:59.463Z,55.25
2022-10-14T17:41:28.903Z,56.94
2022-10-14T17:43:57.892Z,54.84
2022-10-14T17:46:26.327Z,52.38
2022-10-14T17:48:56.319Z,53.84
2022-10-14T17:51:25.615Z,55.09
2022-10-14T17:53:57.184Z,55.29
2022-10-14T17:56:24.939Z,55.33
2022-10-14T17:58:54.949Z,54.84
2022-10-14T18:01:36.705Z,54.92
2022-10-14T18:04:09.297Z,54.15
2022-10-14T18:06:37.605Z,56.33
2022-10-14T18:09:08.107Z,55.86
2022-10-14T18:12:07.191Z,56.40
2022-10-14T18:14:27.678Z,56.35
2022-10-14T18:16:54.522Z,53.47
2022-10-14T18:19:21.412Z,52.93
2022-10-14T18:21:48.307Z,53.23
2022-10-14T18:24:15.184Z,55.03
2022-10-14T18:26:42.150Z,54.89
2022-10-14T18:29:09.422Z,54.47
2022-10-14T18:31:36.920Z,54.45
2022-10-14T18:34:03.875Z,54.38
2022-10-14T18:36:33.259Z,54.17
2022-10-14T18:39:03.164Z,53.23
2022-10-14T18:41:30.905Z,53.46
2022-10-14T18:44:00.415Z,53.50
2022-10-14T18:46:29.874Z,52.38
2022-10-14T18:48:58.092Z,53.25
2022-10-14T18:51:29.499Z,54.14
2022-10-14T18:53:58.357Z,55.88
2022-10-14T18:56:28.072Z,54.02
2022-10-14T18:58:57.842Z,53.22
2022-10-14T19:01:26.520Z,52.52
2022-10-14T19:03:54.154Z,54.67
2022-10-14T19:06:21.588Z,55.89
2022-10-14T19:08:48.968Z,58.66
2022-10-14T19:11:20.429Z,59.47
2022-10-14T19:13:48.748Z,60.70
2022-10-14T19:16:21.534Z,61.86
2022-10-14T19:18:52.970Z,59.96
2022-10-14T19:21:22.332Z,59.52
2022-10-14T19:23:50.222Z,58.78
2022-10-14T19:26:22.137Z,57.69
2022-10-14T19:28:50.058Z,56.42
2022-10-14T19:31:22.968Z,54.67
2022-10-14T19:33:49.863Z,53.56
2022-10-14T19:36:18.306Z,53.57
2022-10-14T19:38:52.363Z,54.40
2022-10-14T19:41:19.314Z,56.47
2022-10-14T19:43:46.162Z,56.88
2022-10-14T19:46:14.503Z,57.39
2022-10-14T19:48:41.791Z,53.59
2022-10-14T19:51:12.052Z,55.95
2022-10-14T19:53:39.353Z,55.75
2022-10-14T19:56:11.980Z,52.84
2022-10-14T19:58:42.317Z,55.24
2022-10-14T20:01:16.883Z,54.86
2022-10-14T20:03:44.097Z,54.85
2022-10-14T20:06:12.265Z,55.05
2022-10-14T20:08:39.680Z,54.98
2022-10-14T20:11:08.441Z,54.69
2022-10-14T20:13:35.593Z,56.56
2022-10-14T20:16:02.722Z,55.91
2022-10-14T20:18:30.250Z,57.12
2022-10-14T20:20:57.478Z,55.85
2022-10-14T20:23:25.414Z,59.09
2022-10-14T20:25:52.313Z,59.95
2022-10-14T20:28:19.865Z,60.57
2022-10-14T20:30:48.071Z,59.73
2022-10-14T20:33:15.252Z,60.10
2022-10-14T20:35:42.063Z,58.79
2022-10-14T20:38:08.900Z,58.52
2022-10-14T20:40:35.928Z,59.63
2022-10-14T20:43:04.065Z,59.68
2022-10-14T20:45:30.978Z,58.17
2022-10-14T20:47:57.798Z,57.10
2022-10-14T20:50:24.640Z,57.92
2022-10-14T20:52:51.476Z,55.38
2022-10-14T20:55:18.338Z,55.80
2022-10-14T20:57:45.204Z,55.25
2022-10-14T21:00:12.767Z,54.67
2022-10-14T21:02:39.699Z,56.58
2022-10-14T21:05:06.837Z,54.49
2022-10-14T21:07:33.678Z,53.45
2022-10-14T21:10:00.978Z,54.91
2022-10-14T21:12:27.831Z,52.96
2022-10-14T21:14:54.690Z,55.02
2022-10-14T21:17:21.519Z,54.81
2022-10-14T21:19:49.081Z,54.92
2022-10-14T21:22:15.963Z,55.12
2022-10-14T21:24:42.881Z,55.62
2022-10-14T21:27:09.944Z,55.42
2022-10-14T21:29:36.857Z,56.20
2022-10-14T21:32:03.915Z,57.16
2022-10-14T21:34:30.762Z,56.46
2022-10-14T21:36:57.698Z,56.09
2022-10-14T21:39:24.641Z,57.11
2022-10-14T21:41:52.258Z,58.67
2022-10-14T21:44:20.817Z,58.30
2022-10-14T21:46:47.907Z,66.00
2022-10-14T21:49:15.933Z,63.11
2022-10-14T21:51:42.826Z,65.04
2022-10-14T21:54:12.393Z,62.40
2022-10-14T21:56:39.608Z,61.87
2022-10-14T21:59:06.911Z,60.64
2022-10-14T22:01:33.828Z,56.99
2022-10-14T22:04:05.944Z,54.41
2022-10-14T22:06:34.341Z,55.56
2022-10-14T22:09:02.781Z,53.49
2022-10-14T22:11:32.908Z,53.73
2022-10-14T22:14:01.516Z,53.63
2022-10-14T22:16:29.399Z,52.59
2022-10-14T22:18:59.060Z,53.79
2022-10-14T22:21:27.117Z,52.82
2022-10-14T22:23:54.294Z,52.53
2022-10-14T22:26:23.779Z,52.76
2022-10-14T22:28:57.423Z,53.85
2022-10-14T22:31:24.575Z,55.58
2022-10-14T22:33:51.424Z,54.61
2022-10-14T22:36:24.375Z,54.70
2022-10-14T22:38:52.807Z,54.84
2022-10-14T22:41:19.849Z,56.97
2022-10-14T22:43:51.774Z,55.78
2022-10-14T22:46:20.559Z,56.91
2022-10-14T22:48:48.862Z,56.60
2022-10-14T22:51:18.001Z,53.94
2022-10-14T22:53:45.740Z,54.00
2022-10-14T22:56:15.533Z,55.79
2022-10-14T22:58:42.558Z,55.89
2022-10-14T23:01:11.980Z,56.25
2022-10-14T23:03:38.862Z,57.56
2022-10-14T23:06:07.535Z,57.58
2022-10-14T23:08:35.445Z,60.04
2022-10-14T23:11:03.327Z,59.89
2022-10-14T23:13:30.412Z,61.72
2022-10-14T23:16:05.381Z,62.33
2022-10-14T23:18:34.768Z,68.10
2022-10-14T23:21:13.174Z,68.59
2022-10-14T23:23:40.414Z,72.68
2022-10-14T23:26:11.544Z,67.84
2022-10-14T23:28:38.752Z,63.20
2022-10-14T23:31:13.830Z,64.06
2022-10-14T23:33:40.847Z,62.27
2022-10-14T23:36:10.367Z,58.65
2022-10-14T23:38:37.905Z,54.42
2022-10-14T23:41:05.947Z,53.96
2022-10-14T23:43:33.173Z,55.35
2022-10-14T23:46:01.030Z,52.74
2022-10-14T23:48:28.133Z,53.08
2022-10-14T23:50:55.433Z,54.59
2022-10-14T23:53:22.699Z,55.09
2022-10-14T23:55:49.541Z,54.98
2022-10-14T23:58:16.466Z,53.57
